Bookmark and Share
Track history (hours):
 

Bradley

Last reported at 2012-Sep-26 08:29 UTC. Time now 2014-Apr-23 15:20 UTC.
Position N 36°54' E 027°17'.
Warning: this ship's position is years out of date!

Length 24 m; draft 1.4 m.

Type: Pleasure craft. MMSI: 235083645.

NotesDate/timePositionNaut miles runAvg speedWind from/ knotsBaromVisibWave heightAir tempDewpointWater temp
2012-Sep-26 08:29N 36°54' E 027°17'  
2012-Sep-18 15:24N 36°43' E 027°03'23 2.1
2012-Sep-18 04:35N 36°35' E 026°36'9 8.2
2012-Sep-18 03:29N 36°34' E 026°25'4 0.3
2012-Sep-17 15:26N 36°30' E 026°22'3 3.0
2012-Sep-17 14:32N 36°31' E 026°19'0 0.0
2012-Sep-17 13:33N 36°31' E 026°19'0 0.0
2012-Sep-17 12:33N 36°31' E 026°19'0 0.0
2012-Sep-17 11:31N 36°31' E 026°19'0 0.0
2012-Sep-17 10:34N 36°31' E 026°19'0 0.0
2012-Sep-17 09:33N 36°31' E 026°19'0 0.0
2012-Sep-17 08:33N 36°31' E 026°19'0 0.0
2012-Sep-17 07:33N 36°31' E 026°19'1 0.7
2012-Sep-17 06:33N 36°30' E 026°18'8 8.3
2012-Sep-17 05:33N 36°31' E 026°08'8 8.1
2012-Sep-17 04:36N 36°31' E 025°59'9 8.2
2012-Sep-17 03:33N 36°30' E 025°48'8 8.2
2012-Sep-17 02:33N 36°30' E 025°38'8 7.9
2012-Sep-17 01:33N 36°30' E 025°28'6 5.7
2012-Sep-17 00:33N 36°27' E 025°22'4 3.9
2012-Sep-16 23:33N 36°24' E 025°23'0 0.0
2012-Sep-16 22:33N 36°24' E 025°23'0 0.0
2012-Sep-16 21:33N 36°24' E 025°23'0 0.0
2012-Sep-16 20:33N 36°24' E 025°23'0 0.0
2012-Sep-16 19:33N 36°24' E 025°23'0 0.0
2012-Sep-16 18:33N 36°24' E 025°23'0 0.0
2012-Sep-16 17:33N 36°24' E 025°23'0 0.0
2012-Sep-16 16:33N 36°24' E 025°23'0 0.0
2012-Sep-16 15:34N 36°24' E 025°23'0 0.0
2012-Sep-16 14:33N 36°24' E 025°23'0 0.0
2012-Sep-16 13:33N 36°24' E 025°23'0 0.0
2012-Sep-16 12:33N 36°24' E 025°23'0 0.1
2012-Sep-16 11:33N 36°24' E 025°23'2 2.1
2012-Sep-16 10:35N 36°25' E 025°26'0 0.0
2012-Sep-16 09:33N 36°25' E 025°26'0 0.0
2012-Sep-16 08:33N 36°25' E 025°26'  

Dump ship's entire track history

sailing weather and tide predictions

Bradley — 2EBD7 — position and weather